TAF KHOB
KHOB 270522Z 2706/2806 19007KT P6SM OVC050 FM271500 21006KT P6SM -SHRA OVC040=
METAR KHOB
WC KHOB
WS KHOB
WV KHOB